createdAt,value
2018-06-27T00:01:34.137Z,97815.07
2018-06-27T00:04:02.222Z,97824.02
2018-06-27T00:06:30.231Z,97831.81
2018-06-27T00:08:58.166Z,97836.81
2018-06-27T00:11:27.125Z,97832.86
2018-06-27T00:13:55.098Z,97827.97
2018-06-27T00:16:23.165Z,97827.19
2018-06-27T00:18:51.279Z,97822.91
2018-06-27T00:21:19.262Z,97814.78
2018-06-27T00:23:47.339Z,97818.23
2018-06-27T00:26:15.330Z,97824.98
2018-06-27T00:28:43.384Z,97818.01
2018-06-27T00:31:11.755Z,97809.53
2018-06-27T00:33:39.702Z,97808.03
2018-06-27T00:36:07.757Z,97810.06
2018-06-27T00:38:35.755Z,97807.72
2018-06-27T00:41:03.937Z,97805.60
2018-06-27T00:43:31.886Z,97803.17
2018-06-27T00:46:00.230Z,97800.36
2018-06-27T00:48:28.286Z,97797.17
2018-06-27T00:50:56.336Z,97786.89
2018-06-27T00:53:29.663Z,97780.50
2018-06-27T00:55:57.689Z,97773.93
2018-06-27T00:58:25.725Z,97774.67
2018-06-27T01:00:53.915Z,97774.95
2018-06-27T01:03:21.901Z,97771.16
2018-06-27T01:05:49.906Z,97760.70
2018-06-27T01:08:17.941Z,97759.99
2018-06-27T01:10:46.050Z,97763.13
2018-06-27T01:13:14.076Z,97761.14
2018-06-27T01:15:42.016Z,97759.94
2018-06-27T01:18:10.468Z,97757.08
2018-06-27T01:20:38.527Z,97749.81
2018-06-27T01:23:07.093Z,97746.06
2018-06-27T01:25:35.059Z,97745.62
2018-06-27T01:28:03.002Z,97737.90
2018-06-27T01:30:31.303Z,97748.57
2018-06-27T01:32:59.373Z,97755.98
2018-06-27T01:35:27.445Z,97760.61
2018-06-27T01:37:55.820Z,97751.52
2018-06-27T01:40:25.489Z,97750.95
2018-06-27T01:42:54.009Z,97735.73
2018-06-27T01:45:22.499Z,97738.47
2018-06-27T01:47:56.308Z,97735.39
2018-06-27T01:50:24.990Z,97736.13
2018-06-27T01:52:53.633Z,97732.12
2018-06-27T01:55:23.508Z,97732.90
2018-06-27T01:57:52.043Z,97727.08
2018-06-27T02:00:22.155Z,97726.94
2018-06-27T02:02:50.665Z,97730.91
2018-06-27T02:05:19.154Z,97729.23
2018-06-27T02:07:48.865Z,97730.91
2018-06-27T02:10:20.057Z,97731.42
2018-06-27T02:12:49.616Z,97728.11
2018-06-27T02:15:17.872Z,97715.83
2018-06-27T02:17:46.796Z,97726.90
2018-06-27T02:20:15.438Z,97719.95
2018-06-27T02:22:43.922Z,97718.80
2018-06-27T02:25:12.033Z,97712.45
2018-06-27T02:27:40.065Z,97715.10
2018-06-27T02:30:08.159Z,97711.38
2018-06-27T02:32:36.668Z,97707.55
2018-06-27T02:35:05.030Z,97707.42
2018-06-27T02:37:33.124Z,97688.01
2018-06-27T02:40:01.360Z,97702.41
2018-06-27T02:42:29.815Z,97694.30
2018-06-27T02:44:58.102Z,97684.66
2018-06-27T02:47:26.174Z,97691.76
2018-06-27T02:49:54.543Z,97692.64
2018-06-27T02:52:22.526Z,97700.93
2018-06-27T02:54:50.530Z,97682.02
2018-06-27T02:57:18.540Z,97672.09
2018-06-27T02:59:46.765Z,97672.27
2018-06-27T03:02:14.744Z,97679.91
2018-06-27T03:04:42.782Z,97672.50
2018-06-27T03:07:11.241Z,97667.69
2018-06-27T03:09:39.664Z,97665.89
2018-06-27T03:12:07.680Z,97659.58
2018-06-27T03:14:35.721Z,97654.16
2018-06-27T03:17:03.756Z,97659.58
2018-06-27T03:19:31.807Z,97661.56
2018-06-27T03:21:59.799Z,97662.70
2018-06-27T03:24:28.116Z,97655.59
2018-06-27T03:26:56.134Z,97646.20
2018-06-27T03:29:24.194Z,97644.08
2018-06-27T03:31:52.264Z,97633.71
2018-06-27T03:34:20.275Z,97630.39
2018-06-27T03:36:48.448Z,97632.73
2018-06-27T03:39:16.480Z,97635.91
2018-06-27T03:41:44.456Z,97639.84
2018-06-27T03:44:12.903Z,97652.91
2018-06-27T03:46:40.823Z,97654.09
2018-06-27T03:49:08.861Z,97667.53
2018-06-27T03:51:36.844Z,97672.69
2018-06-27T03:54:05.289Z,97683.47
2018-06-27T03:56:33.284Z,97677.42
2018-06-27T03:59:01.297Z,97683.99
2018-06-27T04:01:29.738Z,97677.40
2018-06-27T04:03:58.633Z,97675.89
2018-06-27T04:06:26.584Z,97679.22
2018-06-27T04:08:54.588Z,97673.65
2018-06-27T04:11:22.649Z,97662.28
2018-06-27T04:13:50.620Z,97667.51
2018-06-27T04:16:18.598Z,97666.11
2018-06-27T04:18:46.597Z,97660.63
2018-06-27T04:21:14.667Z,97662.50
2018-06-27T04:23:42.703Z,97656.38
2018-06-27T04:26:10.705Z,97645.52
2018-06-27T04:28:39.466Z,97637.86
2018-06-27T04:31:07.548Z,97629.08
2018-06-27T04:33:35.548Z,97626.71
2018-06-27T04:36:03.941Z,97624.43
2018-06-27T04:38:32.054Z,97628.56
2018-06-27T04:41:00.092Z,97623.97
2018-06-27T04:43:28.019Z,97617.36
2018-06-27T04:45:56.076Z,97610.75
2018-06-27T04:48:24.125Z,97614.31
2018-06-27T04:50:52.144Z,97625.83
2018-06-27T04:53:20.204Z,97637.58
2018-06-27T04:55:48.222Z,97639.59
2018-06-27T04:58:16.226Z,97641.98
2018-06-27T05:00:52.529Z,97655.02
2018-06-27T05:03:21.841Z,97655.64
2018-06-27T05:05:49.863Z,97655.49
2018-06-27T05:08:18.484Z,97656.12
2018-06-27T05:10:46.518Z,97662.73
2018-06-27T05:13:14.567Z,97655.83
2018-06-27T05:15:42.523Z,97664.30
2018-06-27T05:18:10.580Z,97661.91
2018-06-27T05:20:38.646Z,97661.39
2018-06-27T05:23:06.754Z,97665.16
2018-06-27T05:25:34.965Z,97675.08
2018-06-27T05:28:02.995Z,97668.13
2018-06-27T05:30:31.107Z,97672.82
2018-06-27T05:32:59.001Z,97676.56
2018-06-27T05:35:27.026Z,97680.30
2018-06-27T05:37:55.156Z,97681.03
2018-06-27T05:40:23.219Z,97688.19
2018-06-27T05:42:51.492Z,97687.61
2018-06-27T05:45:19.632Z,97690.63
2018-06-27T05:47:47.606Z,97694.77
2018-06-27T05:50:15.555Z,97695.72
2018-06-27T05:52:43.598Z,97693.57
2018-06-27T05:55:11.760Z,97701.87
2018-06-27T05:57:40.755Z,97700.48
2018-06-27T06:00:09.908Z,97693.28
2018-06-27T06:02:37.833Z,97691.89
2018-06-27T06:05:08.213Z,97692.40
2018-06-27T06:07:36.802Z,97688.36
2018-06-27T06:10:07.647Z,97690.13
2018-06-27T06:12:35.687Z,97696.25
2018-06-27T06:15:04.967Z,97699.37
2018-06-27T06:17:33.150Z,97706.35
2018-06-27T06:20:01.226Z,97703.90
2018-06-27T06:22:29.670Z,97689.89
2018-06-27T06:24:57.749Z,97681.24
2018-06-27T06:27:25.804Z,97682.41
2018-06-27T06:29:53.754Z,97671.06
2018-06-27T06:32:21.709Z,97659.05
2018-06-27T06:34:49.735Z,97649.55
2018-06-27T06:37:17.727Z,97650.06
2018-06-27T06:39:46.181Z,97635.83
2018-06-27T06:42:14.349Z,97634.67
2018-06-27T06:44:42.971Z,97635.48
2018-06-27T06:47:10.996Z,97627.61
2018-06-27T06:49:39.493Z,97617.24
2018-06-27T06:52:07.572Z,97600.39
2018-06-27T06:54:35.514Z,97600.23
2018-06-27T06:57:03.599Z,97601.55
2018-06-27T06:59:31.551Z,97593.75
2018-06-27T07:01:59.524Z,97600.53
2018-06-27T07:04:27.493Z,97605.64
2018-06-27T07:06:55.623Z,97587.77
2018-06-27T07:09:23.792Z,97582.81
2018-06-27T07:11:51.765Z,97594.87
2018-06-27T07:14:19.869Z,97600.58
2018-06-27T07:16:47.995Z,97607.80
2018-06-27T07:19:15.995Z,97613.78
2018-06-27T07:21:44.460Z,97612.03
2018-06-27T07:24:12.820Z,97606.61
2018-06-27T07:26:41.853Z,97616.77
2018-06-27T07:29:09.965Z,97624.37
2018-06-27T07:31:38.154Z,97627.23
2018-06-27T07:34:06.195Z,97625.77
2018-06-27T07:36:34.522Z,97614.20
2018-06-27T07:39:03.050Z,97602.41
2018-06-27T07:41:32.446Z,97609.75
2018-06-27T07:44:00.445Z,97603.22
2018-06-27T07:46:29.947Z,97600.36
2018-06-27T07:48:58.061Z,97599.20
2018-06-27T07:51:26.111Z,97597.83
2018-06-27T07:53:54.361Z,97602.47
2018-06-27T07:56:22.479Z,97604.62
2018-06-27T07:58:50.692Z,97610.95
2018-06-27T08:01:18.752Z,97608.99
2018-06-27T08:03:46.970Z,97603.03
2018-06-27T08:06:14.987Z,97600.23
2018-06-27T08:08:43.675Z,97597.63
2018-06-27T08:11:11.861Z,97592.02
2018-06-27T08:13:39.904Z,97584.23
2018-06-27T08:16:07.951Z,97589.28
2018-06-27T08:18:43.506Z,97594.38
2018-06-27T08:21:11.638Z,97597.02
2018-06-27T08:23:39.868Z,97580.04
2018-06-27T08:28:59.636Z,97592.09
2018-06-27T08:31:27.762Z,97593.70
2018-06-27T08:33:55.832Z,97600.62
2018-06-27T08:36:23.873Z,97591.14
2018-06-27T08:38:51.876Z,97585.92
2018-06-27T08:41:20.150Z,97587.58
2018-06-27T08:43:48.322Z,97600.81
2018-06-27T08:46:16.438Z,97598.23
2018-06-27T08:48:44.477Z,97600.81
2018-06-27T08:51:12.567Z,97599.02
2018-06-27T08:53:40.722Z,97615.20
2018-06-27T08:56:10.762Z,97614.56
2018-06-27T08:58:38.763Z,97623.23
2018-06-27T09:01:06.847Z,97618.17
2018-06-27T09:03:34.776Z,97618.68
2018-06-27T09:06:02.787Z,97623.53
2018-06-27T09:08:30.867Z,97626.39
2018-06-27T09:10:59.052Z,97630.05
2018-06-27T09:13:27.034Z,97632.31
2018-06-27T09:15:55.091Z,97637.85
2018-06-27T09:18:23.074Z,97636.34
2018-06-27T09:20:51.199Z,97639.24
2018-06-27T09:23:19.252Z,97642.41
2018-06-27T09:25:47.594Z,97646.05
2018-06-27T09:28:15.652Z,97648.02
2018-06-27T09:30:43.638Z,97639.17
2018-06-27T09:33:11.616Z,97633.67
2018-06-27T09:35:39.818Z,97633.08
2018-06-27T09:38:08.257Z,97640.00
2018-06-27T09:40:36.220Z,97627.35
2018-06-27T09:43:04.260Z,97632.84
2018-06-27T09:45:32.249Z,97634.88
2018-06-27T09:48:00.417Z,97622.97
2018-06-27T09:50:28.783Z,97630.58
2018-06-27T09:52:56.942Z,97622.13
2018-06-27T09:55:24.962Z,97626.78
2018-06-27T09:57:53.139Z,97621.49
2018-06-27T10:00:26.761Z,97612.62
2018-06-27T10:02:54.879Z,97611.25
2018-06-27T10:05:22.810Z,97600.23
2018-06-27T10:07:51.657Z,97603.33
2018-06-27T10:10:19.830Z,97592.23
2018-06-27T10:12:47.827Z,97592.03
2018-06-27T10:15:16.109Z,97586.42
2018-06-27T10:17:44.080Z,97585.59
2018-06-27T10:20:12.375Z,97584.80
2018-06-27T10:22:40.557Z,97578.20
2018-06-27T10:25:08.708Z,97579.44
2018-06-27T10:27:36.860Z,97569.76
2018-06-27T10:30:05.528Z,97571.14
2018-06-27T10:32:33.513Z,97562.16
2018-06-27T10:35:01.533Z,97551.80
2018-06-27T10:37:29.496Z,97553.27
2018-06-27T10:39:57.440Z,97549.88
2018-06-27T10:42:25.645Z,97548.05
2018-06-27T10:44:53.752Z,97543.56
2018-06-27T10:47:21.860Z,97543.13
2018-06-27T10:49:50.058Z,97539.91
2018-06-27T10:52:18.225Z,97537.70
2018-06-27T10:54:54.164Z,97530.41
2018-06-27T10:57:23.339Z,97528.54
2018-06-27T10:59:52.559Z,97518.14
2018-06-27T11:02:21.257Z,97533.19
2018-06-27T11:04:49.219Z,97535.31
2018-06-27T11:07:17.190Z,97529.67
2018-06-27T11:09:45.253Z,97517.16
2018-06-27T11:12:13.207Z,97517.84
2018-06-27T11:14:41.257Z,97518.91
2018-06-27T11:17:09.352Z,97521.07
2018-06-27T11:19:37.543Z,97509.00
2018-06-27T11:22:05.621Z,97515.97
2018-06-27T11:24:33.683Z,97519.69
2018-06-27T11:27:01.752Z,97517.14
2018-06-27T11:29:29.902Z,97514.20
2018-06-27T11:31:58.335Z,97505.27
2018-06-27T11:34:26.412Z,97499.76
2018-06-27T11:36:54.368Z,97499.22
2018-06-27T11:39:23.008Z,97506.49
2018-06-27T11:41:51.831Z,97501.78
2018-06-27T11:44:19.961Z,97504.27
2018-06-27T11:46:48.818Z,97505.30
2018-06-27T11:49:16.817Z,97503.67
2018-06-27T11:51:45.403Z,97509.69
2018-06-27T11:54:13.974Z,97507.54
2018-06-27T11:56:42.069Z,97501.69
2018-06-27T11:59:10.026Z,97495.82
2018-06-27T12:01:38.007Z,97499.39
2018-06-27T12:04:06.034Z,97501.02
2018-06-27T12:06:34.211Z,97495.66
2018-06-27T12:09:02.605Z,97498.92
2018-06-27T12:11:30.612Z,97503.30
2018-06-27T12:13:58.641Z,97493.01
2018-06-27T12:16:27.216Z,97490.23
2018-06-27T12:18:55.293Z,97486.80
2018-06-27T12:21:23.567Z,97483.42
2018-06-27T12:23:51.566Z,97487.42
2018-06-27T12:26:19.778Z,97484.61
2018-06-27T12:28:47.698Z,97475.02
2018-06-27T12:31:15.974Z,97466.98
2018-06-27T12:33:43.943Z,97464.09
2018-06-27T12:36:13.332Z,97459.01
2018-06-27T12:38:41.368Z,97461.94
2018-06-27T12:41:09.416Z,97463.59
2018-06-27T12:43:37.424Z,97466.28
2018-06-27T12:46:05.508Z,97456.83
2018-06-27T12:48:33.561Z,97460.20
2018-06-27T12:51:01.583Z,97449.84
2018-06-27T12:53:29.498Z,97445.00
2018-06-27T12:55:57.853Z,97438.16
2018-06-27T12:58:26.012Z,97440.67
2018-06-27T13:00:54.096Z,97435.78
2018-06-27T13:03:22.143Z,97438.64
2018-06-27T13:05:50.245Z,97434.39
2018-06-27T13:08:18.324Z,97439.87
2018-06-27T13:10:46.766Z,97433.64
2018-06-27T13:13:14.833Z,97427.67
2018-06-27T13:15:42.944Z,97423.90
2018-06-27T13:18:10.886Z,97419.16
2018-06-27T13:20:38.921Z,97415.86
2018-06-27T13:23:07.055Z,97420.17
2018-06-27T13:25:35.154Z,97411.27
2018-06-27T13:28:03.152Z,97403.16
2018-06-27T13:30:31.074Z,97401.02
2018-06-27T13:32:59.076Z,97399.04
2018-06-27T13:35:27.212Z,97405.67
2018-06-27T13:37:55.434Z,97419.19
2018-06-27T13:40:23.426Z,97422.30
2018-06-27T13:42:51.504Z,97412.81
2018-06-27T13:45:19.537Z,97405.77
2018-06-27T13:47:47.503Z,97410.39
2018-06-27T13:50:15.521Z,97409.27
2018-06-27T13:52:43.784Z,97407.86
2018-06-27T13:55:11.928Z,97420.92
2018-06-27T13:57:39.848Z,97429.87
2018-06-27T14:00:08.175Z,97407.16
2018-06-27T14:02:36.273Z,97399.85
2018-06-27T14:05:04.899Z,97397.95
2018-06-27T14:07:33.558Z,97390.53
2018-06-27T14:10:02.060Z,97378.09
2018-06-27T14:12:30.121Z,97383.91
2018-06-27T14:14:59.278Z,97396.22
2018-06-27T14:17:27.777Z,97397.17
2018-06-27T14:19:56.080Z,97396.69
2018-06-27T14:22:24.264Z,97404.15
2018-06-27T14:24:52.940Z,97410.25
2018-06-27T14:27:21.524Z,97395.65
2018-06-27T14:29:49.637Z,97396.84
2018-06-27T14:32:17.632Z,97402.53
2018-06-27T14:34:45.762Z,97393.36
2018-06-27T14:37:13.772Z,97370.05
2018-06-27T14:39:41.801Z,97374.09
2018-06-27T14:42:09.866Z,97368.02
2018-06-27T14:44:37.870Z,97365.04
2018-06-27T14:47:06.046Z,97367.25
2018-06-27T14:49:34.528Z,97395.52
2018-06-27T14:52:02.656Z,97402.55
2018-06-27T14:54:30.617Z,97409.19
2018-06-27T14:56:58.628Z,97409.45
2018-06-27T14:59:26.698Z,97417.83
2018-06-27T15:01:54.641Z,97432.93
2018-06-27T15:04:22.721Z,97435.51
2018-06-27T15:06:51.038Z,97424.27
2018-06-27T15:09:19.022Z,97447.89
2018-06-27T15:11:47.116Z,97455.05
2018-06-27T15:14:15.136Z,97479.09
2018-06-27T15:16:43.131Z,97530.92
2018-06-27T15:19:11.147Z,97554.20
2018-06-27T15:21:39.233Z,97568.23
2018-06-27T15:24:07.322Z,97543.46
2018-06-27T15:26:35.382Z,97513.55
2018-06-27T15:29:03.379Z,97535.23
2018-06-27T15:31:31.452Z,97535.01
2018-06-27T15:33:59.486Z,97525.30
2018-06-27T15:36:27.701Z,97491.20
2018-06-27T15:38:55.704Z,97489.22
2018-06-27T15:41:24.424Z,97479.59
2018-06-27T15:43:52.766Z,97474.19
2018-06-27T15:46:20.826Z,97484.97
2018-06-27T15:48:48.928Z,97474.22
2018-06-27T15:51:17.007Z,97470.89
2018-06-27T15:53:45.110Z,97469.55
2018-06-27T15:56:13.125Z,97475.84
2018-06-27T15:58:41.480Z,97479.98
2018-06-27T16:01:09.939Z,97472.81
2018-06-27T16:03:38.042Z,97487.86
2018-06-27T16:06:07.065Z,97493.50
2018-06-27T16:08:35.012Z,97494.19
2018-06-27T16:11:03.010Z,97499.80
2018-06-27T16:13:31.045Z,97503.84
2018-06-27T16:15:59.308Z,97515.25
2018-06-27T16:18:27.560Z,97511.72
2018-06-27T16:20:55.795Z,97519.89
2018-06-27T16:23:23.704Z,97522.05
2018-06-27T16:25:51.721Z,97521.09
2018-06-27T16:28:19.727Z,97520.69
2018-06-27T16:30:47.894Z,97518.41
2018-06-27T16:33:15.989Z,97514.65
2018-06-27T16:35:44.008Z,97514.28
2018-06-27T16:38:12.219Z,97516.25
2018-06-27T16:40:40.871Z,97515.65
2018-06-27T16:43:08.941Z,97513.80
2018-06-27T16:45:36.975Z,97520.39
2018-06-27T16:48:05.970Z,97526.40
2018-06-27T16:50:34.015Z,97523.64
2018-06-27T16:53:01.917Z,97513.98
2018-06-27T16:55:29.942Z,97512.31
2018-06-27T16:57:57.899Z,97513.31
2018-06-27T17:00:25.951Z,97512.31
2018-06-27T17:02:54.048Z,97509.14
2018-06-27T17:05:22.046Z,97495.66
2018-06-27T17:07:50.884Z,97500.98
2018-06-27T17:10:18.836Z,97508.87
2018-06-27T17:12:47.274Z,97509.66
2018-06-27T17:15:16.666Z,97502.60
2018-06-27T17:17:44.828Z,97492.35
2018-06-27T17:20:12.976Z,97496.67
2018-06-27T17:22:40.922Z,97495.27
2018-06-27T17:25:08.925Z,97482.55
2018-06-27T17:27:36.990Z,97485.92
2018-06-27T17:30:05.278Z,97475.08
2018-06-27T17:32:33.745Z,97479.19
2018-06-27T17:35:01.823Z,97464.03
2018-06-27T17:37:29.732Z,97461.45
2018-06-27T17:39:57.683Z,97461.84
2018-06-27T17:42:25.767Z,97461.27
2018-06-27T17:44:53.826Z,97458.89
2018-06-27T17:47:21.775Z,97464.69
2018-06-27T17:49:49.848Z,97458.95
2018-06-27T17:52:17.778Z,97461.22
2018-06-27T17:54:45.675Z,97460.84
2018-06-27T17:57:13.748Z,97469.41
2018-06-27T17:59:42.044Z,97474.25
2018-06-27T18:02:10.095Z,97476.94
2018-06-27T18:04:38.430Z,97473.76
2018-06-27T18:07:06.461Z,97469.24
2018-06-27T18:09:34.729Z,97465.88
2018-06-27T18:12:02.747Z,97479.20
2018-06-27T18:14:30.771Z,97475.75
2018-06-27T18:16:58.861Z,97474.25
2018-06-27T18:19:26.890Z,97472.09
2018-06-27T18:21:54.935Z,97473.56
2018-06-27T18:24:23.002Z,97471.79
2018-06-27T18:26:51.010Z,97469.20
2018-06-27T18:29:19.319Z,97469.14
2018-06-27T18:31:47.392Z,97474.37
2018-06-27T18:34:15.388Z,97476.34
2018-06-27T18:36:45.554Z,97472.20
2018-06-27T18:39:13.527Z,97479.30
2018-06-27T18:41:44.243Z,97479.53
2018-06-27T18:44:12.554Z,97485.82
2018-06-27T18:46:40.568Z,97483.26
2018-06-27T18:49:08.592Z,97473.80
2018-06-27T18:51:36.672Z,97474.58
2018-06-27T18:54:05.648Z,97477.54
2018-06-27T18:56:33.708Z,97482.36
2018-06-27T18:59:01.741Z,97498.34
2018-06-27T19:01:29.862Z,97510.47
2018-06-27T19:03:57.935Z,97528.48
2018-06-27T19:06:25.993Z,97535.80
2018-06-27T19:08:54.040Z,97537.45
2018-06-27T19:11:22.104Z,97531.26
2018-06-27T19:13:50.317Z,97531.85
2018-06-27T19:16:18.306Z,97537.37
2018-06-27T19:18:46.373Z,97530.16
2018-06-27T19:21:14.397Z,97536.56
2018-06-27T19:23:43.056Z,97552.34
2018-06-27T19:26:11.106Z,97547.52
2018-06-27T19:28:39.302Z,97547.10
2018-06-27T19:31:07.219Z,97541.09
2018-06-27T19:33:35.212Z,97534.38
2018-06-27T19:36:03.659Z,97543.26
2018-06-27T19:38:31.986Z,97530.42
2018-06-27T19:41:00.107Z,97514.69
2018-06-27T19:43:28.482Z,97516.33
2018-06-27T19:45:56.412Z,97515.84
2018-06-27T19:48:24.416Z,97496.16
2018-06-27T19:50:52.476Z,97489.44
2018-06-27T19:53:20.619Z,97504.80
2018-06-27T19:55:48.666Z,97516.25
2018-06-27T19:58:16.803Z,97514.69
2018-06-27T20:00:45.865Z,97523.73
2018-06-27T20:03:13.880Z,97525.32
2018-06-27T20:05:43.475Z,97529.16
2018-06-27T20:08:11.327Z,97528.16
2018-06-27T20:10:39.503Z,97521.95
2018-06-27T20:13:07.476Z,97513.81
2018-06-27T20:15:35.552Z,97517.75
2018-06-27T20:18:03.644Z,97519.11
2018-06-27T20:20:31.739Z,97529.45
2018-06-27T20:22:59.647Z,97533.98
2018-06-27T20:25:27.699Z,97526.49
2018-06-27T20:27:56.061Z,97532.70
2018-06-27T20:30:23.901Z,97526.48
2018-06-27T20:32:51.852Z,97523.44
2018-06-27T20:35:19.778Z,97516.44
2018-06-27T20:37:47.760Z,97518.61
2018-06-27T20:40:15.744Z,97523.05
2018-06-27T20:42:43.810Z,97530.25
2018-06-27T20:45:11.795Z,97531.61
2018-06-27T20:47:39.941Z,97537.34
2018-06-27T20:50:07.877Z,97533.50
2018-06-27T20:52:36.025Z,97526.48
2018-06-27T20:55:03.905Z,97516.64
2018-06-27T20:57:31.864Z,97504.83
2018-06-27T20:59:59.786Z,97496.95
2018-06-27T21:02:27.785Z,97496.75
2018-06-27T21:04:55.735Z,97506.40
2018-06-27T21:07:23.753Z,97501.58
2018-06-27T21:09:51.702Z,97484.34
2018-06-27T21:12:19.637Z,97477.45
2018-06-27T21:14:47.622Z,97482.16
2018-06-27T21:17:15.536Z,97476.05
2018-06-27T21:19:43.528Z,97472.20
2018-06-27T21:22:11.550Z,97471.02
2018-06-27T21:24:39.454Z,97485.02
2018-06-27T21:27:07.508Z,97492.70
2018-06-27T21:29:35.445Z,97503.23
2018-06-27T21:32:03.438Z,97516.95
2018-06-27T21:34:31.511Z,97520.91
2018-06-27T21:36:59.423Z,97521.02
2018-06-27T21:39:27.391Z,97522.58
2018-06-27T21:41:55.331Z,97524.18
2018-06-27T21:44:23.289Z,97515.78
2018-06-27T21:46:51.270Z,97515.67
2018-06-27T21:49:19.267Z,97513.31
2018-06-27T21:51:47.263Z,97503.54
2018-06-27T21:54:15.222Z,97500.13
2018-06-27T21:56:43.153Z,97492.63
2018-06-27T21:59:11.031Z,97484.73
2018-06-27T22:01:39.688Z,97482.94
2018-06-27T22:04:07.844Z,97485.23
2018-06-27T22:06:35.886Z,97481.95
2018-06-27T22:09:06.045Z,97486.19
2018-06-27T22:11:34.152Z,97496.55
2018-06-27T22:14:02.121Z,97492.80
2018-06-27T22:16:30.215Z,97480.10
2018-06-27T22:18:58.294Z,97480.89
2018-06-27T22:21:26.382Z,97477.83
2018-06-27T22:23:54.735Z,97479.30
2018-06-27T22:26:22.796Z,97481.67
2018-06-27T22:28:50.945Z,97470.73
2018-06-27T22:31:18.985Z,97483.23
2018-06-27T22:33:47.127Z,97477.52
2018-06-27T22:36:15.130Z,97478.20
2018-06-27T22:38:43.245Z,97476.72
2018-06-27T22:41:11.331Z,97471.43
2018-06-27T22:43:39.456Z,97469.83
2018-06-27T22:46:07.731Z,97463.23
2018-06-27T22:48:35.766Z,97456.43
2018-06-27T22:51:04.571Z,97456.55
2018-06-27T22:53:32.666Z,97455.75
2018-06-27T22:56:00.700Z,97447.10
2018-06-27T22:58:28.671Z,97447.18
2018-06-27T23:00:56.746Z,97450.82
2018-06-27T23:03:24.728Z,97444.94
2018-06-27T23:05:52.775Z,97445.20
2018-06-27T23:08:20.781Z,97442.74
2018-06-27T23:10:48.726Z,97445.89
2018-06-27T23:13:16.701Z,97440.30
2018-06-27T23:15:44.682Z,97441.18
2018-06-27T23:18:12.695Z,97446.88
2018-06-27T23:20:40.943Z,97438.71
2018-06-27T23:23:08.986Z,97437.91
2018-06-27T23:25:36.998Z,97434.30
2018-06-27T23:28:05.013Z,97432.88
2018-06-27T23:30:33.093Z,97438.77
2018-06-27T23:33:01.185Z,97432.86
2018-06-27T23:35:29.223Z,97430.88
2018-06-27T23:37:57.235Z,97433.30
2018-06-27T23:40:25.191Z,97421.19
2018-06-27T23:42:53.435Z,97417.82
2018-06-27T23:45:21.536Z,97408.16
2018-06-27T23:47:49.659Z,97408.37
2018-06-27T23:50:17.815Z,97404.38
2018-06-27T23:52:45.780Z,97391.52
2018-06-27T23:55:13.866Z,97388.25
2018-06-27T23:57:41.930Z,97380.19
